Time;durP1;ratioP1;P1;durP2;ratioP2;P2;SDS_P1;SDS_P2;PMS_P1;PMS_P2;Temp;Humidity;BMP_temperature;BMP_pressure;BME280_temperature;BME280_humidity;BME280_pressure;Samples;Min_cycle;Max_cycle;Signal;HPM_P1;HPM_P2
2022/02/05 00:02:35;;;;;;;1.40;1.30;;;6.20;99.90;;;;;;4935922;28;20519;-53
2022/02/05 00:05:03;;;;;;;3.58;1.60;;;6.20;99.90;;;;;;4934763;28;20039;-52
2022/02/05 00:07:31;;;;;;;1.50;1.40;;;6.20;99.90;;;;;;4936068;28;20047;-54
2022/02/05 00:10:29;;;;;;;;;;;5.80;99.90;;;;;;4937880;28;20046;-53
2022/02/05 00:40:09;;;;;;;1.35;0.80;;;4.50;99.90;;;;;;4935332;28;20757;-52
2022/02/05 00:42:39;;;;;;;2.15;0.90;;;4.40;99.90;;;;;;4935140;28;20032;-52
2022/02/05 00:45:08;;;;;;;0.68;0.68;;;4.40;99.90;;;;;;4934493;28;20027;-52
2022/02/05 00:47:36;;;;;;;0.73;0.73;;;4.40;99.90;;;;;;4934266;28;20031;-54
2022/02/05 00:50:04;;;;;;;0.90;0.90;;;4.40;99.90;;;;;;4934543;28;20416;-53
2022/02/05 00:52:29;;;;;;;0.70;0.70;;;4.40;99.90;;;;;;4935246;28;20583;-55
2022/02/05 00:55:04;;;;;;;0.80;0.80;;;4.30;99.90;;;;;;4935403;28;20035;-52
2022/02/05 00:57:44;;;;;;;1.00;0.90;;;4.30;99.90;;;;;;4934671;28;20038;-52
2022/02/05 01:00:11;;;;;;;0.77;0.77;;;4.30;99.90;;;;;;4931123;28;20067;-52
2022/02/05 01:02:36;;;;;;;1.30;1.00;;;4.30;99.90;;;;;;4933455;28;20039;-54
2022/02/05 01:05:02;;;;;;;0.70;0.70;;;4.30;99.90;;;;;;4933103;28;20649;-52
2022/02/05 01:07:28;;;;;;;0.80;0.80;;;4.30;99.90;;;;;;4934880;28;20039;-53
2022/02/05 01:09:53;;;;;;;0.90;0.90;;;4.30;99.90;;;;;;4934234;28;20118;-52
2022/02/05 01:12:19;;;;;;;1.42;1.42;;;4.30;99.90;;;;;;4934045;28;20512;-54
2022/02/05 01:14:53;;;;;;;0.80;0.80;;;4.30;99.90;;;;;;4934257;28;20135;-53
2022/02/05 01:17:25;;;;;;;1.23;0.90;;;4.30;99.90;;;;;;4936224;28;20027;-53
2022/02/05 01:22:25;;;;;;;0.85;0.85;;;4.20;99.90;;;;;;4932155;28;20140;-52
2022/02/05 01:24:53;;;;;;;1.05;1.05;;;4.00;99.90;;;;;;4929832;28;20160;-52
2022/02/05 01:30:34;;;;;;;0.90;0.90;;;3.90;99.90;;;;;;4932060;28;20051;-54
2022/02/05 01:52:53;;;;;;;0.80;0.80;;;3.70;99.90;;;;;;4933461;28;20067;-53
2022/02/05 02:05:31;;;;;;;0.70;0.70;;;3.50;99.90;;;;;;4948837;28;20168;-48
2022/02/05 02:15:36;;;;;;;0.88;0.88;;;3.30;99.90;;;;;;4948955;28;20689;-48
2022/02/05 02:18:20;;;;;;;0.80;0.80;;;3.30;99.90;;;;;;4947866;28;20036;-48
2022/02/05 02:26:40;;;;;;;1.42;0.90;;;3.20;99.90;;;;;;4951989;28;20166;-48
2022/02/05 02:29:11;;;;;;;0.90;0.90;;;3.10;99.90;;;;;;4951315;28;20046;-48
2022/02/05 02:31:42;;;;;;;0.90;0.90;;;3.10;99.90;;;;;;4947942;28;20058;-48
2022/02/05 02:34:11;;;;;;;0.82;0.82;;;3.00;99.90;;;;;;4952322;28;20404;-48
2022/02/05 02:36:45;;;;;;;0.90;0.90;;;3.00;99.90;;;;;;4954954;28;20043;-49
2022/02/05 02:39:18;;;;;;;0.85;0.85;;;3.00;99.90;;;;;;4950636;28;20035;-48
2022/02/05 02:41:52;;;;;;;0.80;0.80;;;3.00;99.90;;;;;;4955391;28;20503;-48
2022/02/05 02:44:18;;;;;;;0.90;0.90;;;3.10;99.90;;;;;;4951374;28;20019;-49
2022/02/05 02:46:44;;;;;;;0.85;0.85;;;3.00;99.90;;;;;;4950269;28;20031;-49
2022/02/05 02:49:14;;;;;;;0.90;0.90;;;2.90;99.90;;;;;;4948609;28;20051;-48
2022/02/05 02:57:18;;;;;;;2.10;1.00;;;2.80;99.90;;;;;;4953327;28;20097;-48
2022/02/05 02:59:50;;;;;;;1.85;1.08;;;2.90;99.90;;;;;;4951249;28;20020;-49
2022/02/05 03:02:19;;;;;;;1.13;1.08;;;2.80;99.90;;;;;;4951097;28;20039;-48
2022/02/05 03:04:45;;;;;;;1.75;1.15;;;2.80;99.90;;;;;;4951378;28;20027;-48
2022/02/05 03:07:11;;;;;;;1.20;1.10;;;2.80;99.90;;;;;;4950132;28;20028;-48
2022/02/05 03:09:37;;;;;;;1.85;1.13;;;2.70;99.90;;;;;;4953685;28;20053;-48
2022/02/05 03:12:04;;;;;;;0.80;0.80;;;2.70;99.90;;;;;;4953524;28;20038;-48
2022/02/05 03:14:29;;;;;;;1.73;1.20;;;2.70;99.90;;;;;;4940174;28;20719;-48
2022/02/05 03:17:02;;;;;;;1.00;1.00;;;2.70;99.90;;;;;;4941967;28;20031;-50
2022/02/05 03:19:28;;;;;;;2.08;1.05;;;2.70;99.90;;;;;;4941004;28;20138;-48
2022/02/05 03:21:54;;;;;;;3.17;1.10;;;2.60;99.90;;;;;;4939690;28;20488;-49
2022/02/05 03:24:20;;;;;;;1.27;1.13;;;2.60;99.90;;;;;;4942503;28;20099;-48
2022/02/05 03:26:45;;;;;;;1.52;1.42;;;2.70;99.90;;;;;;4941007;28;20074;-48
2022/02/05 03:29:13;;;;;;;1.45;1.35;;;2.60;99.90;;;;;;4940179;28;20046;-47
2022/02/05 03:31:39;;;;;;;1.58;1.05;;;2.50;99.90;;;;;;4939963;28;20043;-48
2022/02/05 03:34:06;;;;;;;1.25;1.20;;;2.50;99.90;;;;;;4940878;28;20042;-48
2022/02/05 03:36:32;;;;;;;1.17;1.17;;;2.50;99.90;;;;;;4940565;28;21632;-48
2022/02/05 03:38:59;;;;;;;1.55;1.45;;;2.50;99.90;;;;;;4940483;28;20077;-48
2022/02/05 03:41:25;;;;;;;1.40;1.30;;;2.50;99.90;;;;;;4939707;28;20062;-48
2022/02/05 03:43:51;;;;;;;1.55;1.30;;;2.50;99.90;;;;;;4939620;28;20110;-47
2022/02/05 03:46:16;;;;;;;1.38;1.30;;;2.50;99.90;;;;;;4940221;28;20032;-48
2022/02/05 03:48:42;;;;;;;2.15;1.25;;;2.40;99.90;;;;;;4941663;28;20039;-46
2022/02/05 03:51:08;;;;;;;1.38;1.25;;;2.40;99.90;;;;;;4939134;28;20126;-47
2022/02/05 03:53:35;;;;;;;2.97;1.48;;;2.40;99.90;;;;;;4939613;28;20114;-47
2022/02/05 03:56:01;;;;;;;1.50;1.40;;;2.30;99.90;;;;;;4941571;28;20118;-47
2022/02/05 03:58:26;;;;;;;1.63;1.52;;;2.30;99.90;;;;;;4939113;28;20095;-49
2022/02/05 04:00:55;;;;;;;5.57;3.42;;;2.30;99.90;;;;;;4938407;28;20032;-50
2022/02/05 04:03:21;;;;;;;;;;;2.30;99.90;;;;;;4942626;28;20023;-49
2022/02/05 04:05:47;;;;;;;1.80;1.70;;;2.30;99.90;;;;;;4940395;28;19928;-48
2022/02/05 04:08:14;;;;;;;1.52;1.42;;;2.20;99.90;;;;;;4940247;28;20039;-48
2022/02/05 04:10:51;;;;;;;1.52;1.42;;;2.20;99.90;;;;;;4939409;28;20101;-47
2022/02/05 04:18:36;;;;;;;1.77;1.70;;;2.10;99.90;;;;;;4938876;28;20031;-50
2022/02/05 04:21:03;;;;;;;1.80;1.70;;;2.10;99.90;;;;;;4938958;28;20038;-48
2022/02/05 04:23:30;;;;;;;1.80;1.70;;;1.90;99.90;;;;;;4936043;28;20046;-48
2022/02/05 04:25:56;;;;;;;2.30;1.63;;;1.90;99.90;;;;;;4937640;28;20043;-48
2022/02/05 04:28:22;;;;;;;3.63;2.00;;;1.80;99.90;;;;;;4939599;28;20035;-47
2022/02/05 04:30:47;;;;;;;2.80;1.50;;;1.80;99.90;;;;;;4938917;28;20053;-49
2022/02/05 04:33:13;;;;;;;1.90;1.80;;;1.70;99.90;;;;;;4938921;28;20102;-48
2022/02/05 04:35:43;;;;;;;1.67;1.58;;;1.70;99.90;;;;;;4937593;28;20151;-48
2022/02/05 04:38:09;;;;;;;1.80;1.70;;;1.70;99.90;;;;;;4938477;28;20027;-48
2022/02/05 04:40:41;;;;;;;2.05;1.88;;;1.70;99.90;;;;;;4940496;28;20050;-48
2022/02/05 04:53:53;;;;;;;5.22;3.30;;;1.60;99.90;;;;;;4942547;29;20110;-48
2022/02/05 05:19:29;;;;;;;1.85;1.55;;;1.50;99.90;;;;;;4946159;29;20053;-48
2022/02/05 05:21:57;;;;;;;2.10;1.90;;;1.50;99.90;;;;;;4946590;28;20042;-48
2022/02/05 05:24:23;;;;;;;2.00;1.63;;;1.40;99.90;;;;;;4958288;28;20031;-48
2022/02/05 05:26:49;;;;;;;2.15;1.85;;;1.40;99.90;;;;;;4949704;28;20039;-48
2022/02/05 05:29:15;;;;;;;1.83;1.48;;;1.30;99.90;;;;;;4946187;28;20109;-48
2022/02/05 05:31:40;;;;;;;1.70;1.60;;;1.40;99.90;;;;;;4942775;28;20414;-48
2022/02/05 05:34:06;;;;;;;1.35;1.35;;;1.30;99.90;;;;;;4944432;28;20035;-48
2022/02/05 05:36:32;;;;;;;2.20;2.10;;;1.20;99.90;;;;;;4949756;28;20035;-48
2022/02/05 05:39:03;;;;;;;2.55;2.05;;;1.30;99.90;;;;;;4949937;28;20043;-48
2022/02/05 05:41:31;;;;;;;1.90;1.75;;;1.20;99.90;;;;;;4951034;28;20035;-48
2022/02/05 05:46:48;;;;;;;1.50;1.40;;;1.20;99.90;;;;;;4946788;28;20559;-48
2022/02/05 05:52:02;;;;;;;1.88;1.30;;;1.10;99.90;;;;;;4955029;28;20055;-49
2022/02/05 05:54:28;;;;;;;3.35;1.35;;;1.10;99.90;;;;;;4941867;28;20783;-49
2022/02/05 05:56:54;;;;;;;1.52;1.42;;;1.10;99.90;;;;;;4945782;28;20165;-48
2022/02/05 05:59:19;;;;;;;1.27;1.27;;;1.10;99.90;;;;;;4948006;28;20031;-49
2022/02/05 06:01:45;;;;;;;1.75;1.58;;;1.00;99.90;;;;;;4944938;28;20417;-48
2022/02/05 06:04:12;;;;;;;3.47;1.70;;;1.10;99.90;;;;;;4945055;28;20031;-49
2022/02/05 06:06:37;;;;;;;2.90;1.83;;;1.00;99.90;;;;;;4947718;28;20035;-48
2022/02/05 06:09:03;;;;;;;2.03;1.90;;;1.00;99.90;;;;;;4949889;28;20389;-48
2022/02/05 06:11:29;;;;;;;2.03;1.92;;;1.00;99.90;;;;;;4949111;28;20043;-49
2022/02/05 06:13:54;;;;;;;2.65;1.52;;;1.00;99.90;;;;;;4947745;28;20066;-48
2022/02/05 06:16:27;;;;;;;1.90;1.60;;;0.90;99.90;;;;;;4947237;28;20106;-48
2022/02/05 06:18:53;;;;;;;1.80;1.70;;;0.90;99.90;;;;;;4947695;28;20054;-48
2022/02/05 06:21:19;;;;;;;1.77;1.60;;;0.90;99.90;;;;;;4946028;28;20058;-48
2022/02/05 06:23:44;;;;;;;1.30;1.20;;;0.90;99.90;;;;;;4951192;28;20067;-49
2022/02/05 06:26:10;;;;;;;5.68;2.03;;;0.90;99.90;;;;;;4947106;28;20038;-48
2022/02/05 06:28:35;;;;;;;2.00;1.40;;;0.90;99.90;;;;;;4947764;28;20031;-48
2022/02/05 06:31:01;;;;;;;26.73;13.30;;;0.80;99.90;;;;;;4947085;28;20047;-49
2022/02/05 06:33:27;;;;;;;18.80;7.25;;;0.80;99.90;;;;;;4948304;28;20035;-48
2022/02/05 06:35:53;;;;;;;7.53;3.88;;;0.80;99.90;;;;;;4947986;28;20027;-49
2022/02/05 06:38:18;;;;;;;5.03;2.17;;;0.70;99.90;;;;;;4948948;28;20043;-48
2022/02/05 06:40:45;;;;;;;2.05;1.60;;;0.70;99.90;;;;;;4945630;28;20027;-50
2022/02/05 06:43:11;;;;;;;2.67;1.80;;;0.70;99.90;;;;;;4947003;28;20073;-48
2022/02/05 06:45:37;;;;;;;2.97;1.98;;;0.80;99.90;;;;;;4945998;28;20886;-48
2022/02/05 06:48:03;;;;;;;3.17;1.45;;;0.70;99.90;;;;;;4948950;28;20038;-48
2022/02/05 06:50:28;;;;;;;2.85;1.67;;;0.70;99.90;;;;;;4947580;28;20059;-48
2022/02/05 06:52:55;;;;;;;5.32;2.65;;;0.70;99.90;;;;;;4947094;28;20429;-48
2022/02/05 06:55:20;;;;;;;8.40;3.35;;;0.70;99.90;;;;;;4947930;28;20123;-49
2022/02/05 06:57:46;;;;;;;4.82;3.13;;;0.70;99.90;;;;;;4948433;28;20039;-48
2022/02/05 07:00:12;;;;;;;3.50;1.95;;;0.70;99.90;;;;;;4942353;28;20032;-49
2022/02/05 07:02:43;;;;;;;8.40;3.95;;;0.70;99.90;;;;;;4944864;28;20126;-48
2022/02/05 07:05:09;;;;;;;9.38;4.38;;;0.70;99.90;;;;;;4946520;28;20848;-48
2022/02/05 07:07:35;;;;;;;10.93;4.30;;;0.70;99.90;;;;;;4951602;28;20031;-48
2022/02/05 07:10:01;;;;;;;33.13;12.43;;;0.70;99.90;;;;;;4951977;28;20480;-48
2022/02/05 07:12:27;;;;;;;15.43;5.35;;;0.70;99.90;;;;;;4945561;28;20118;-49
2022/02/05 07:15:06;;;;;;;8.30;4.03;;;0.70;99.90;;;;;;4949682;28;20341;-48
2022/02/05 07:17:44;;;;;;;8.60;4.50;;;0.70;99.90;;;;;;4952191;28;20035;-49
2022/02/05 07:20:33;;;;;;;26.30;9.35;;;0.70;99.90;;;;;;4952662;28;20453;-48
2022/02/05 07:31:17;;;;;;;5.40;2.00;;;0.60;99.90;;;;;;4943268;28;20511;-49
2022/02/05 07:33:43;;;;;;;2.47;1.88;;;0.70;99.90;;;;;;4942817;28;20827;-48
2022/02/05 07:36:11;;;;;;;2.20;1.73;;;0.70;99.90;;;;;;4944798;28;20046;-48
2022/02/05 07:38:36;;;;;;;7.10;2.40;;;0.70;99.90;;;;;;4940853;28;20035;-48
2022/02/05 07:41:02;;;;;;;4.28;1.98;;;0.80;99.90;;;;;;4944149;28;20042;-48
2022/02/05 07:43:34;;;;;;;3.30;2.17;;;0.80;99.90;;;;;;4942820;28;20058;-48
2022/02/05 07:46:00;;;;;;;1.75;1.65;;;0.80;99.90;;;;;;4941515;28;20417;-48
2022/02/05 07:48:26;;;;;;;3.50;2.25;;;0.90;99.90;;;;;;4946972;28;20043;-48
2022/02/05 07:50:52;;;;;;;2.75;1.98;;;0.90;99.90;;;;;;4951319;28;20563;-49
2022/02/05 07:53:18;;;;;;;3.92;1.85;;;0.90;99.90;;;;;;4951111;28;20031;-48
2022/02/05 07:55:44;;;;;;;2.05;1.85;;;1.00;99.90;;;;;;4943939;28;20029;-49
2022/02/05 07:58:09;;;;;;;2.25;2.10;;;1.00;99.90;;;;;;4943474;28;20118;-49
2022/02/05 08:00:35;;;;;;;1.83;1.73;;;1.10;99.90;;;;;;4950351;28;20058;-49
2022/02/05 08:03:01;;;;;;;1.80;1.70;;;1.10;99.90;;;;;;4942686;28;20039;-49
2022/02/05 08:05:27;;;;;;;4.00;1.90;;;1.20;99.90;;;;;;4942011;28;20058;-49
2022/02/05 08:07:53;;;;;;;2.88;1.65;;;1.20;99.90;;;;;;4941653;28;20121;-50
2022/02/05 08:10:21;;;;;;;1.80;1.70;;;1.30;99.90;;;;;;4942956;28;20114;-50
2022/02/05 08:12:53;;;;;;;2.83;2.10;;;1.30;99.90;;;;;;4942926;28;20074;-49
2022/02/05 08:15:22;;;;;;;8.13;2.00;;;1.30;99.90;;;;;;4940474;28;20028;-50
2022/02/05 08:17:49;;;;;;;5.00;1.88;;;1.40;99.90;;;;;;4941644;28;20039;-48
2022/02/05 08:20:15;;;;;;;2.38;2.17;;;1.40;99.90;;;;;;4945154;28;20058;-49
2022/02/05 08:22:41;;;;;;;2.80;2.05;;;1.40;99.90;;;;;;4947596;28;20089;-48
2022/02/05 08:25:07;;;;;;;3.38;2.17;;;1.40;99.90;;;;;;4946506;28;20087;-49
2022/02/05 08:27:32;;;;;;;3.15;2.17;;;1.50;99.90;;;;;;4941974;28;20509;-49
2022/02/05 08:30:01;;;;;;;3.83;1.88;;;1.50;99.90;;;;;;4942265;28;20126;-49
2022/02/05 08:32:28;;;;;;;2.42;2.00;;;1.60;99.90;;;;;;4942315;28;20043;-49
2022/02/05 08:34:59;;;;;;;4.38;1.98;;;1.60;99.90;;;;;;4946748;28;20035;-49
2022/02/05 08:37:29;;;;;;;1.95;1.85;;;1.70;99.90;;;;;;4946253;28;20078;-48
2022/02/05 08:39:56;;;;;;;2.58;2.35;;;1.70;99.90;;;;;;4948039;28;20345;-49
2022/02/05 08:42:21;;;;;;;2.03;1.60;;;1.80;99.90;;;;;;4949185;28;20874;-49
2022/02/05 08:44:47;;;;;;;2.40;1.92;;;1.80;99.90;;;;;;4947788;28;20286;-49
2022/02/05 08:47:13;;;;;;;6.47;1.60;;;1.90;99.90;;;;;;4940647;28;20075;-49
2022/02/05 08:49:39;;;;;;;1.50;1.40;;;1.90;99.90;;;;;;4948985;28;20056;-49
2022/02/05 08:52:08;;;;;;;1.90;1.80;;;2.00;99.90;;;;;;4947978;28;20511;-48
2022/02/05 08:54:35;;;;;;;2.15;1.75;;;2.00;99.90;;;;;;4947180;28;20070;-48
2022/02/05 08:57:01;;;;;;;2.42;1.80;;;2.00;99.90;;;;;;4947698;28;20155;-49
2022/02/05 08:59:31;;;;;;;3.38;2.08;;;2.10;99.90;;;;;;4947582;28;20518;-49
2022/02/05 09:02:02;;;;;;;1.88;1.77;;;2.20;99.90;;;;;;4946422;28;20039;-49
2022/02/05 09:04:36;;;;;;;2.50;1.90;;;2.30;99.90;;;;;;4948300;28;20507;-49
2022/02/05 09:07:02;;;;;;;1.50;1.40;;;2.30;99.90;;;;;;4947738;28;20023;-49
2022/02/05 09:14:42;;;;;;;6.57;1.95;;;2.40;99.90;;;;;;4942882;28;20030;-49
2022/02/05 09:17:08;;;;;;;1.30;1.30;;;2.50;99.90;;;;;;4946856;28;20027;-49
2022/02/05 09:19:35;;;;;;;1.10;1.10;;;2.50;99.90;;;;;;4946490;28;20049;-50
2022/02/05 09:22:01;;;;;;;4.13;1.67;;;2.60;99.90;;;;;;4946965;28;20583;-49
2022/02/05 09:24:27;;;;;;;1.65;1.50;;;2.60;99.90;;;;;;4948245;28;20043;-49
2022/02/05 09:27:03;;;;;;;1.17;1.15;;;2.60;99.90;;;;;;4950059;28;20077;-49
2022/02/05 09:29:32;;;;;;;3.33;1.30;;;2.70;99.90;;;;;;4945685;28;20031;-50
2022/02/05 09:31:58;;;;;;;5.03;1.80;;;2.70;99.90;;;;;;4947519;28;20051;-49
2022/02/05 09:34:23;;;;;;;1.27;1.27;;;2.70;99.90;;;;;;4948165;28;20512;-49
2022/02/05 09:36:49;;;;;;;1.80;1.70;;;2.80;99.90;;;;;;4949888;28;20034;-49
2022/02/05 09:39:16;;;;;;;1.50;1.40;;;2.80;99.90;;;;;;4950153;28;20031;-48
2022/02/05 09:41:43;;;;;;;1.55;1.38;;;2.90;99.90;;;;;;4947596;28;20102;-48
2022/02/05 09:44:09;;;;;;;1.48;1.40;;;2.90;99.90;;;;;;4948733;28;20099;-49
2022/02/05 09:46:35;;;;;;;2.72;1.40;;;3.00;99.90;;;;;;4946893;28;20043;-49
2022/02/05 09:49:02;;;;;;;2.38;1.40;;;3.00;99.90;;;;;;4949945;28;20126;-48
2022/02/05 09:51:36;;;;;;;1.13;1.13;;;3.10;99.90;;;;;;4946334;28;20065;-49
2022/02/05 09:54:04;;;;;;;1.88;1.50;;;3.10;99.90;;;;;;4946888;28;20153;-49
2022/02/05 09:56:33;;;;;;;2.53;1.35;;;3.20;99.90;;;;;;4949956;28;20023;-49
2022/02/05 09:59:00;;;;;;;1.00;1.00;;;3.30;99.90;;;;;;4947467;28;20484;-49
2022/02/05 10:01:34;;;;;;;1.80;1.05;;;3.30;99.90;;;;;;4946931;28;20039;-49
2022/02/05 10:04:00;;;;;;;1.92;1.52;;;3.20;99.90;;;;;;4948904;28;20031;-49
2022/02/05 10:06:32;;;;;;;2.05;1.48;;;3.20;99.90;;;;;;4948716;28;20504;-49
2022/02/05 10:09:00;;;;;;;3.08;1.45;;;3.10;99.90;;;;;;4946538;28;20033;-49
2022/02/05 10:11:31;;;;;;;1.88;1.77;;;3.10;99.90;;;;;;4945860;28;20035;-50
2022/02/05 10:14:14;;;;;;;2.13;1.27;;;3.20;99.90;;;;;;4943203;28;20599;-51
2022/02/05 10:16:40;;;;;;;1.67;1.48;;;3.30;99.90;;;;;;4945802;28;20172;-51
2022/02/05 10:19:07;;;;;;;1.77;1.33;;;3.30;99.90;;;;;;4949524;28;20067;-49
2022/02/05 10:21:33;;;;;;;1.10;1.10;;;3.30;99.90;;;;;;4946323;28;20424;-49
2022/02/05 10:24:09;;;;;;;1.45;1.30;;;3.40;99.90;;;;;;4943543;28;20038;-49
2022/02/05 10:26:38;;;;;;;1.05;1.05;;;3.50;99.90;;;;;;4949577;28;20141;-48
2022/02/05 10:29:11;;;;;;;2.17;1.33;;;3.60;99.90;;;;;;4945808;28;20035;-49
2022/02/05 10:32:09;;;;;;;3.25;1.30;;;3.70;99.90;;;;;;4948209;28;20630;-48
2022/02/05 10:35:36;;;;;;;2.97;1.40;;;3.60;99.90;;;;;;4942651;28;20086;-48
2022/02/05 10:37:45;;;;;;;2.88;2.05;;;3.70;99.90;;;;;;4946324;28;20047;-49
2022/02/05 10:40:14;;;;;;;1.63;1.52;;;3.80;99.90;;;;;;4948962;28;20020;-49
2022/02/05 10:43:03;;;;;;;5.03;1.27;;;3.80;99.90;;;;;;4940910;28;20050;-49
2022/02/05 10:45:44;;;;;;;2.80;1.60;;;3.80;99.90;;;;;;4946938;28;20380;-48
2022/02/05 10:48:16;;;;;;;3.00;1.52;;;3.80;99.90;;;;;;4949304;28;20046;-49
2022/02/05 10:50:42;;;;;;;2.00;1.73;;;3.70;99.90;;;;;;4947580;28;20063;-48
2022/02/05 10:53:19;;;;;;;2.05;1.95;;;3.70;99.90;;;;;;4948277;28;20637;-48
2022/02/05 10:58:42;;;;;;;1.67;1.48;;;3.70;99.90;;;;;;4945652;28;20034;-48
2022/02/05 11:07:19;;;;;;;3.15;1.20;;;3.80;99.90;;;;;;4947879;28;20606;-48
2022/02/05 11:09:47;;;;;;;1.30;1.20;;;3.90;99.90;;;;;;4951295;28;20035;-48
2022/02/05 11:20:13;;;;;;;1.30;1.20;;;4.20;99.90;;;;;;4949435;28;20122;-49
2022/02/05 11:22:50;;;;;;;;;;;4.10;99.90;;;;;;4946840;28;20039;-47
2022/02/05 11:25:17;;;;;;;0.98;0.98;;;4.10;99.90;;;;;;4943009;28;20009;-50
2022/02/05 11:27:51;;;;;;;1.50;1.40;;;4.20;99.90;;;;;;4946020;28;20026;-49
2022/02/05 11:30:35;;;;;;;3.15;1.58;;;4.20;99.90;;;;;;4945399;28;20504;-47
2022/02/05 11:33:06;;;;;;;1.42;1.33;;;4.20;99.90;;;;;;4946645;28;21669;-49
2022/02/05 11:36:39;;;;;;;4.30;1.58;;;4.20;99.90;;;;;;4951145;28;20038;-49
2022/02/05 11:38:36;;;;;;;2.28;1.33;;;4.30;99.90;;;;;;4949082;28;20036;-49
2022/02/05 11:41:04;;;;;;;1.45;1.35;;;4.30;99.90;;;;;;4948336;28;20704;-50
2022/02/05 11:43:31;;;;;;;3.58;1.38;;;4.30;99.90;;;;;;4948046;28;20059;-49
2022/02/05 11:46:13;;;;;;;1.92;1.75;;;4.30;99.90;;;;;;4938650;28;20428;-49
2022/02/05 11:48:52;;;;;;;6.22;4.60;;;4.40;99.90;;;;;;4934546;28;20646;-49
2022/02/05 11:51:22;;;;;;;2.03;1.88;;;4.40;99.90;;;;;;4937505;28;20035;-47
2022/02/05 11:53:59;;;;;;;2.92;2.65;;;4.30;99.90;;;;;;4937557;28;20039;-50
2022/02/05 11:56:37;;;;;;;9.10;3.80;;;4.30;99.90;;;;;;4946531;28;20050;-50
2022/02/05 11:59:03;;;;;;;16.33;10.90;;;4.30;99.90;;;;;;4940634;28;20026;-49
2022/02/05 12:01:37;;;;;;;3.05;1.45;;;4.30;99.90;;;;;;4943181;28;20047;-49
2022/02/05 12:04:23;;;;;;;7.35;1.50;;;4.20;99.90;;;;;;4950893;28;20384;-49
2022/02/05 12:06:51;;;;;;;4.97;1.60;;;4.30;99.90;;;;;;4950622;28;20396;-50
2022/02/05 12:09:46;;;;;;;2.28;1.55;;;4.40;99.90;;;;;;4943960;28;20034;-49
2022/02/05 12:12:25;;;;;;;2.70;1.38;;;4.50;99.90;;;;;;4949256;28;20027;-51
2022/02/05 12:15:13;;;;;;;3.25;1.40;;;4.60;99.90;;;;;;4947083;28;20031;-50
2022/02/05 12:18:03;;;;;;;3.40;1.58;;;4.60;99.90;;;;;;4944903;28;20075;-50
2022/02/05 12:20:32;;;;;;;2.08;1.52;;;4.70;99.90;;;;;;4940604;28;20045;-50
2022/02/05 12:23:18;;;;;;;2.28;1.48;;;4.80;99.90;;;;;;4957737;28;20408;-50
2022/02/05 12:25:58;;;;;;;1.63;1.30;;;4.80;99.90;;;;;;4946933;28;20036;-50
2022/02/05 12:28:33;;;;;;;1.95;1.70;;;4.90;99.90;;;;;;4949669;28;20045;-49
2022/02/05 12:31:01;;;;;;;1.35;1.25;;;4.80;99.90;;;;;;4945789;28;20043;-50
2022/02/05 12:33:48;;;;;;;2.63;1.45;;;4.80;99.90;;;;;;4947294;28;20047;-50
2022/02/05 12:36:25;;;;;;;3.20;1.40;;;4.70;99.90;;;;;;4942077;29;20071;-50
2022/02/05 12:38:53;;;;;;;1.63;1.52;;;4.70;99.90;;;;;;4947384;28;20031;-49
2022/02/05 12:41:21;;;;;;;4.65;1.95;;;4.80;99.90;;;;;;4948320;28;20058;-50
2022/02/05 12:43:58;;;;;;;1.95;1.33;;;4.70;99.90;;;;;;4947764;28;20043;-50
2022/02/05 12:46:38;;;;;;;1.00;1.00;;;4.80;99.90;;;;;;4940948;28;20396;-49
2022/02/05 12:49:10;;;;;;;9.27;1.58;;;4.90;99.90;;;;;;4943703;28;20051;-50
2022/02/05 12:51:41;;;;;;;4.18;1.50;;;4.90;99.90;;;;;;4945278;28;20031;-52
2022/02/05 12:54:14;;;;;;;14.27;10.25;;;5.00;99.90;;;;;;4951990;28;20491;-50
2022/02/05 12:56:41;;;;;;;6.20;2.97;;;5.00;99.90;;;;;;4946950;28;20023;-50
2022/02/05 12:59:13;;;;;;;3.78;1.60;;;5.10;99.90;;;;;;4948922;28;20473;-49
2022/02/05 13:02:05;;;;;;;8.48;5.82;;;5.10;99.90;;;;;;4942118;28;20043;-50
2022/02/05 13:04:52;;;;;;;3.15;1.30;;;5.10;99.90;;;;;;4945309;28;20019;-49
2022/02/05 13:07:22;;;;;;;2.13;1.13;;;5.10;99.90;;;;;;4946632;28;20031;-50
2022/02/05 13:10:03;;;;;;;1.48;1.38;;;5.20;99.90;;;;;;4947008;28;20032;-50
2022/02/05 13:12:33;;;;;;;1.70;1.40;;;5.20;99.90;;;;;;4948382;28;20554;-50
2022/02/05 13:15:04;;;;;;;14.13;6.15;;;5.20;99.80;;;;;;4947380;28;20063;-50
2022/02/05 13:18:16;;;;;;;1.52;1.33;;;5.30;96.70;;;;;;4948212;28;20043;-50
2022/02/05 13:26:55;;;;;;;2.15;0.90;;;5.30;99.90;;;;;;4940449;28;20046;-49
2022/02/05 13:34:16;;;;;;;2.75;1.48;;;5.40;99.90;;;;;;4951324;28;20077;-51
2022/02/05 13:36:55;;;;;;;1.38;1.15;;;5.50;99.90;;;;;;4947813;28;20050;-51
2022/02/05 13:42:01;;;;;;;1.10;1.00;;;5.60;99.90;;;;;;4949338;28;20035;-50
2022/02/05 13:44:58;;;;;;;1.30;1.00;;;5.50;99.90;;;;;;4944247;28;20123;-50
2022/02/05 13:47:28;;;;;;;3.25;1.10;;;5.50;94.80;;;;;;4943720;28;20027;-50
2022/02/05 13:50:07;;;;;;;2.40;1.25;;;5.50;99.00;;;;;;4945064;28;20078;-50
2022/02/05 13:52:44;;;;;;;1.58;1.23;;;5.40;97.60;;;;;;4946710;28;20496;-50
2022/02/05 13:55:13;;;;;;;1.20;1.10;;;5.50;98.90;;;;;;4949779;28;20468;-50
2022/02/05 13:58:08;;;;;;;2.95;1.60;;;5.50;99.90;;;;;;4948725;28;20118;-49
2022/02/05 14:00:45;;;;;;;3.15;1.25;;;5.50;99.90;;;;;;4948505;28;20035;-51
2022/02/05 14:03:12;;;;;;;1.30;1.25;;;5.50;99.90;;;;;;4949125;28;20035;-50
2022/02/05 14:06:06;;;;;;;2.58;1.27;;;5.60;99.90;;;;;;4949121;28;20066;-50
2022/02/05 14:08:34;;;;;;;3.83;1.45;;;5.70;99.90;;;;;;4945773;28;20148;-49
2022/02/05 14:11:05;;;;;;;1.33;1.05;;;5.70;99.90;;;;;;4944741;28;20396;-50
2022/02/05 14:13:31;;;;;;;3.22;1.05;;;5.70;99.90;;;;;;4946991;28;20023;-49
2022/02/05 14:16:00;;;;;;;2.05;1.20;;;5.70;99.90;;;;;;4949319;28;20106;-51
2022/02/05 14:18:26;;;;;;;1.65;1.20;;;5.70;99.90;;;;;;4938631;28;20023;-50
2022/02/05 14:20:56;;;;;;;1.20;1.10;;;5.70;99.90;;;;;;4945244;28;20327;-50
2022/02/05 14:23:24;;;;;;;1.30;1.20;;;5.60;97.50;;;;;;4939859;28;20195;-49
2022/02/05 14:26:16;;;;;;;1.60;1.50;;;5.50;96.90;;;;;;4941623;28;20110;-50
2022/02/05 14:28:55;;;;;;;4.45;1.60;;;5.40;99.70;;;;;;4946583;28;20050;-50
2022/02/05 14:42:07;;;;;;;5.35;1.77;;;5.60;99.90;;;;;;4939385;28;20093;-50
2022/02/05 14:44:33;;;;;;;2.83;1.55;;;5.60;99.70;;;;;;4949857;28;20031;-49
2022/02/05 14:46:59;;;;;;;1.83;1.17;;;5.70;96.80;;;;;;4943843;28;20031;-49
2022/02/05 14:49:25;;;;;;;2.10;1.50;;;5.80;99.90;;;;;;4947947;28;20047;-50
2022/02/05 14:51:51;;;;;;;0.95;0.90;;;6.10;98.00;;;;;;4942972;28;20628;-50
2022/02/05 14:54:17;;;;;;;2.00;1.15;;;6.50;95.30;;;;;;4949200;28;20378;-49
2022/02/05 14:56:43;;;;;;;3.03;1.05;;;6.70;92.60;;;;;;4945892;28;20042;-49
2022/02/05 14:59:09;;;;;;;3.60;0.95;;;6.60;79.80;;;;;;4948929;28;20027;-49
2022/02/05 15:01:35;;;;;;;1.27;1.00;;;6.60;90.80;;;;;;4939903;28;20090;-49
2022/02/05 15:04:02;;;;;;;2.00;1.20;;;6.40;90.20;;;;;;4945340;28;20042;-49
2022/02/05 15:06:30;;;;;;;2.97;0.80;;;6.50;92.20;;;;;;4949824;28;20118;-49
2022/02/05 15:08:57;;;;;;;;;;;6.40;94.70;;;;;;4948387;28;20028;-49
2022/02/05 15:11:24;;;;;;;1.10;1.00;;;6.50;95.30;;;;;;4944456;28;20384;-50
2022/02/05 15:13:52;;;;;;;3.33;1.52;;;6.30;92.80;;;;;;4941653;28;20038;-49
2022/02/05 15:16:18;;;;;;;1.38;1.25;;;6.20;94.80;;;;;;4941826;28;20507;-49
2022/02/05 15:18:53;;;;;;;1.45;1.08;;;6.00;94.20;;;;;;4935326;28;20031;-49
2022/02/05 15:21:32;;;;;;;1.48;1.30;;;5.90;94.80;;;;;;4941538;28;20027;-50
2022/02/05 15:23:59;;;;;;;2.72;1.30;;;5.90;95.60;;;;;;4942770;28;20031;-49
2022/02/05 15:26:27;;;;;;;1.25;1.15;;;5.80;94.40;;;;;;4945025;28;20031;-49
2022/02/05 15:28:53;;;;;;;;;;;5.80;95.90;;;;;;4942171;28;20059;-50
2022/02/05 15:31:19;;;;;;;1.02;1.02;;;5.80;96.60;;;;;;4940938;28;20131;-48
2022/02/05 15:33:48;;;;;;;2.60;1.23;;;5.80;97.00;;;;;;4943129;28;20035;-49
2022/02/05 15:36:19;;;;;;;3.85;1.42;;;5.80;97.20;;;;;;4943692;28;20035;-49
2022/02/05 15:39:06;;;;;;;1.92;1.25;;;5.70;95.80;;;;;;4946600;28;20055;-49
2022/02/05 15:44:16;;;;;;;1.25;1.10;;;5.70;99.60;;;;;;4938560;28;20065;-49
2022/02/05 15:46:42;;;;;;;2.63;1.10;;;5.50;98.30;;;;;;4947126;28;20027;-49
2022/02/05 15:49:08;;;;;;;2.00;1.55;;;5.50;99.00;;;;;;4944280;28;20055;-49
2022/02/05 15:51:33;;;;;;;4.88;1.30;;;5.40;99.90;;;;;;4945664;28;20373;-50
2022/02/05 15:54:05;;;;;;;3.55;1.40;;;5.40;99.90;;;;;;4944504;28;20042;-49
2022/02/05 15:56:54;;;;;;;1.52;1.40;;;5.30;99.90;;;;;;4950102;28;20554;-49
2022/02/05 15:59:25;;;;;;;3.50;1.63;;;5.30;99.30;;;;;;4948156;28;20170;-49
2022/02/05 16:01:50;;;;;;;2.65;1.30;;;5.30;99.90;;;;;;4943066;28;20039;-49
2022/02/05 16:04:20;;;;;;;3.88;1.88;;;5.20;99.90;;;;;;4946297;28;20510;-49
2022/02/05 16:06:47;;;;;;;1.98;1.35;;;5.20;99.90;;;;;;4953483;28;20030;-49
2022/02/05 16:09:12;;;;;;;2.90;1.30;;;5.10;99.90;;;;;;4947751;28;20483;-49
2022/02/05 16:11:38;;;;;;;2.17;1.50;;;5.20;99.90;;;;;;4951072;28;20408;-49
2022/02/05 16:14:04;;;;;;;2.25;1.42;;;5.10;99.90;;;;;;4948465;28;20038;-49
2022/02/05 16:16:29;;;;;;;3.40;1.50;;;5.10;99.90;;;;;;4952493;28;20066;-49
2022/02/05 16:18:55;;;;;;;2.03;1.90;;;5.00;99.90;;;;;;4945582;28;20051;-51